LUKK/KIV METAR and TAF weather

Enter ICAO airport designator
Station Type Date Time Source
LUKK METAR 2022/11/26 09:00 UTC NOAA

LUKK 260900Z 32013KT 9999 BKN013 OVC023 03/M00 Q1022 NOSIG


Station Type Date Time Source
LUKK Decoded METAR 2022/11/26 09:00 UTC NOAA

Chisinau International Airport, Moldova (LUKK) 46-55-40N 028-55-51E
Nov 26, 2022 - 04:00 AM EST / 2022.11.26 0900 UTC
Wind: from the NW (320 degrees) at 15 MPH (13 KT):0
Visibility: greater than 7 mile(s):0
Sky conditions: overcast
Temperature: 37 F (3 C)
Dew Point: 32 F (0 C)
Relative Humidity: 80%
Pressure (altimeter): 30.18 in. Hg (1022 hPa)
ob: LUKK 260900Z 32013KT 9999 BKN013 OVC023 03/M00 Q1022 NOSIG
cycle: 9

Station Type Date Time Source
LUKK TAF 2022/11/26 06:21 UTC NOAA

TAF TAF LUKK 260520Z 2606/2706 33012KT 9999 BKN012

Example: see airport list